sensor_id;sensor_type;location;lat;lon;timestamp;pressure;altitude;pressure_sealevel;temperature;humidity
23223;BME280;11780;13.904;100.620;2023-12-20T00:04:07;101338.28;;;30.56;61.33
23223;BME280;11780;13.904;100.620;2023-12-20T00:06:37;101338.56;;;30.54;61.27
23223;BME280;11780;13.904;100.620;2023-12-20T00:09:08;101348.50;;;30.55;61.28
23223;BME280;11780;13.904;100.620;2023-12-20T00:11:38;101344.91;;;30.55;61.17
23223;BME280;11780;13.904;100.620;2023-12-20T00:14:11;101351.28;;;30.55;61.44
23223;BME280;11780;13.904;100.620;2023-12-20T00:16:42;101356.47;;;30.57;61.43
23223;BME280;11780;13.904;100.620;2023-12-20T00:19:39;101358.94;;;30.58;61.34
23223;BME280;11780;13.904;100.620;2023-12-20T00:22:09;101360.06;;;30.57;61.46
23223;BME280;11780;13.904;100.620;2023-12-20T00:24:42;101368.88;;;30.59;61.38
23223;BME280;11780;13.904;100.620;2023-12-20T00:27:22;101372.44;;;30.60;61.41
23223;BME280;11780;13.904;100.620;2023-12-20T00:30:20;101367.22;;;30.58;61.59
23223;BME280;11780;13.904;100.620;2023-12-20T00:32:51;101377.63;;;30.61;61.55
23223;BME280;11780;13.904;100.620;2023-12-20T00:35:22;101372.13;;;30.61;61.15
23223;BME280;11780;13.904;100.620;2023-12-20T00:37:52;101380.91;;;30.63;61.15
23223;BME280;11780;13.904;100.620;2023-12-20T00:40:23;101372.94;;;30.62;60.98
23223;BME280;11780;13.904;100.620;2023-12-20T00:42:54;101386.94;;;30.65;60.85
23223;BME280;11780;13.904;100.620;2023-12-20T00:45:24;101393.59;;;30.64;61.15
23223;BME280;11780;13.904;100.620;2023-12-20T00:47:55;101380.91;;;30.63;60.95
23223;BME280;11780;13.904;100.620;2023-12-20T00:50:26;101397.47;;;30.63;60.61
23223;BME280;11780;13.904;100.620;2023-12-20T00:52:57;101389.19;;;30.63;61.07
23223;BME280;11780;13.904;100.620;2023-12-20T00:55:30;101391.97;;;30.63;60.81
23223;BME280;11780;13.904;100.620;2023-12-20T00:58:01;101396.97;;;30.61;60.49
23223;BME280;11780;13.904;100.620;2023-12-20T01:00:32;101399.72;;;30.61;60.67
23223;BME280;11780;13.904;100.620;2023-12-20T01:03:03;101416.00;;;30.63;60.79
23223;BME280;11780;13.904;100.620;2023-12-20T01:08:53;101413.75;;;30.65;60.45
23223;BME280;11780;13.904;100.620;2023-12-20T01:11:24;101422.84;;;30.65;60.23
23223;BME280;11780;13.904;100.620;2023-12-20T01:13:54;101423.97;;;30.64;60.61
23223;BME280;11780;13.904;100.620;2023-12-20T01:16:25;101429.22;;;30.66;60.17
23223;BME280;11780;13.904;100.620;2023-12-20T01:22:05;101430.84;;;30.67;60.43
23223;BME280;11780;13.904;100.620;2023-12-20T01:24:36;101428.38;;;30.65;59.69
23223;BME280;11780;13.904;100.620;2023-12-20T01:27:06;101430.00;;;30.66;59.67
23223;BME280;11780;13.904;100.620;2023-12-20T01:29:37;101427.25;;;30.66;59.47
23223;BME280;11780;13.904;100.620;2023-12-20T01:32:18;101428.38;;;30.65;59.58
23223;BME280;11780;13.904;100.620;2023-12-20T01:35:01;101438.50;;;30.70;59.75
23223;BME280;11780;13.904;100.620;2023-12-20T01:37:33;101436.38;;;30.67;59.83
23223;BME280;11780;13.904;100.620;2023-12-20T01:40:04;101439.94;;;30.67;59.48
23223;BME280;11780;13.904;100.620;2023-12-20T01:42:34;101449.84;;;30.68;59.79
23223;BME280;11780;13.904;100.620;2023-12-20T01:45:05;101439.94;;;30.67;59.37
23223;BME280;11780;13.904;100.620;2023-12-20T01:47:36;101441.91;;;30.67;59.34
23223;BME280;11780;13.904;100.620;2023-12-20T01:50:07;101445.97;;;30.70;59.74
23223;BME280;11780;13.904;100.620;2023-12-20T01:52:38;101448.41;;;30.71;59.73
23223;BME280;11780;13.904;100.620;2023-12-20T01:55:13;101458.88;;;30.74;59.52
23223;BME280;11780;13.904;100.620;2023-12-20T01:57:46;101454.47;;;30.73;59.37
23223;BME280;11780;13.904;100.620;2023-12-20T02:00:18;101452.53;;;30.74;58.92
23223;BME280;11780;13.904;100.620;2023-12-20T02:02:54;101458.88;;;30.74;58.92
23223;BME280;11780;13.904;100.620;2023-12-20T02:05:32;101447.00;;;30.74;59.20
23223;BME280;11780;13.904;100.620;2023-12-20T02:10:57;101448.41;;;30.71;58.76
23223;BME280;11780;13.904;100.620;2023-12-20T02:13:28;101437.38;;;30.71;58.53
23223;BME280;11780;13.904;100.620;2023-12-20T02:15:58;101439.00;;;30.72;58.89
23223;BME280;11780;13.904;100.620;2023-12-20T02:18:29;101445.38;;;30.73;58.86
23223;BME280;11780;13.904;100.620;2023-12-20T02:24:24;101437.09;;;30.73;58.78
23223;BME280;11780;13.904;100.620;2023-12-20T02:26:54;101441.50;;;30.74;58.80
23223;BME280;11780;13.904;100.620;2023-12-20T02:29:25;101435.13;;;30.73;58.68
23223;BME280;11780;13.904;100.620;2023-12-20T02:31:56;101438.09;;;30.77;58.85
23223;BME280;11780;13.904;100.620;2023-12-20T02:34:52;101446.88;;;30.79;58.66
23223;BME280;11780;13.904;100.620;2023-12-20T02:37:57;101434.19;;;30.78;58.63
23223;BME280;11780;13.904;100.620;2023-12-20T02:40:27;101446.88;;;30.79;58.84
23223;BME280;11780;13.904;100.620;2023-12-20T02:42:58;101442.50;;;30.78;58.73
23223;BME280;11780;13.904;100.620;2023-12-20T02:45:28;101433.09;;;30.79;58.78
23223;BME280;11780;13.904;100.620;2023-12-20T02:47:59;101437.19;;;30.81;58.83
23223;BME280;11780;13.904;100.620;2023-12-20T02:50:30;101435.84;;;30.79;58.77
23223;BME280;11780;13.904;100.620;2023-12-20T02:53:01;101438.84;;;30.82;58.88
23223;BME280;11780;13.904;100.620;2023-12-20T02:55:38;101433.91;;;30.79;58.65
23223;BME280;11780;13.904;100.620;2023-12-20T02:58:09;101436.97;;;30.78;58.43
23223;BME280;11780;13.904;100.620;2023-12-20T03:00:40;101430.03;;;30.80;58.64
23223;BME280;11780;13.904;100.620;2023-12-20T03:03:11;101430.84;;;30.81;59.05
23223;BME280;11780;13.904;100.620;2023-12-20T03:05:55;101429.72;;;30.82;58.72
23223;BME280;11780;13.904;100.620;2023-12-20T03:08:54;101424.50;;;30.80;58.77
23223;BME280;11780;13.904;100.620;2023-12-20T03:11:28;101434.13;;;30.83;58.63
23223;BME280;11780;13.904;100.620;2023-12-20T03:13:59;101422.25;;;30.82;58.78
23223;BME280;11780;13.904;100.620;2023-12-20T03:16:29;101418.06;;;30.85;58.62
23223;BME280;11780;13.904;100.620;2023-12-20T03:22:21;101421.84;;;30.89;58.59
23223;BME280;11780;13.904;100.620;2023-12-20T03:24:51;101414.38;;;30.90;58.07
23223;BME280;11780;13.904;100.620;2023-12-20T03:27:22;101415.69;;;30.92;57.97
23223;BME280;11780;13.904;100.620;2023-12-20T03:29:53;101404.94;;;30.91;57.98
23223;BME280;11780;13.904;100.620;2023-12-20T03:35:32;101397.97;;;30.93;58.11
23223;BME280;11780;13.904;100.620;2023-12-20T03:38:03;101402.09;;;30.96;58.21
23223;BME280;11780;13.904;100.620;2023-12-20T03:40:34;101399.84;;;30.98;58.21
23223;BME280;11780;13.904;100.620;2023-12-20T03:43:04;101403.09;;;31.00;58.12
23223;BME280;11780;13.904;100.620;2023-12-20T03:48:36;101389.28;;;31.00;58.12
23223;BME280;11780;13.904;100.620;2023-12-20T03:51:07;101385.09;;;31.03;58.25
23223;BME280;11780;13.904;100.620;2023-12-20T03:53:37;101374.03;;;31.03;58.30
23223;BME280;11780;13.904;100.620;2023-12-20T03:56:09;101374.03;;;31.03;58.18
23223;BME280;11780;13.904;100.620;2023-12-20T03:58:40;101376.81;;;31.03;58.06
23223;BME280;11780;13.904;100.620;2023-12-20T04:01:10;101373.44;;;31.06;58.12
23223;BME280;11780;13.904;100.620;2023-12-20T04:03:51;101375.88;;;31.07;58.24
23223;BME280;11780;13.904;100.620;2023-12-20T04:06:48;101364.31;;;31.05;58.48
23223;BME280;11780;13.904;100.620;2023-12-20T04:09:18;101359.63;;;31.06;58.21
23223;BME280;11780;13.904;100.620;2023-12-20T04:11:49;101353.75;;;31.07;58.14
23223;BME280;11780;13.904;100.620;2023-12-20T04:14:19;101353.75;;;31.07;58.06
23223;BME280;11780;13.904;100.620;2023-12-20T04:16:59;101346.00;;;31.09;57.86
23223;BME280;11780;13.904;100.620;2023-12-20T04:19:40;101350.69;;;31.09;58.07
23223;BME280;11780;13.904;100.620;2023-12-20T04:22:10;101337.69;;;31.09;57.61
23223;BME280;11780;13.904;100.620;2023-12-20T04:24:41;101341.78;;;31.12;57.32
23223;BME280;11780;13.904;100.620;2023-12-20T04:27:14;101330.72;;;31.12;57.04
23223;BME280;11780;13.904;100.620;2023-12-20T04:29:45;101336.78;;;31.14;57.29
23223;BME280;11780;13.904;100.620;2023-12-20T04:32:34;101326.53;;;31.14;57.17
23223;BME280;11780;13.904;100.620;2023-12-20T04:35:05;101314.34;;;31.16;56.68
23223;BME280;11780;13.904;100.620;2023-12-20T04:37:35;101306.41;;;31.14;56.41
23223;BME280;11780;13.904;100.620;2023-12-20T04:40:07;101306.41;;;31.14;56.23
23223;BME280;11780;13.904;100.620;2023-12-20T04:42:38;101306.06;;;31.16;55.58
23223;BME280;11780;13.904;100.620;2023-12-20T04:45:09;101289.81;;;31.14;56.01
23223;BME280;11780;13.904;100.620;2023-12-20T04:47:39;101284.78;;;31.16;55.97
23223;BME280;11780;13.904;100.620;2023-12-20T04:50:12;101278.94;;;31.18;55.90
23223;BME280;11780;13.904;100.620;2023-12-20T04:52:43;101271.47;;;31.18;56.49
23223;BME280;11780;13.904;100.620;2023-12-20T04:55:13;101272.59;;;31.17;57.09
23223;BME280;11780;13.904;100.620;2023-12-20T04:57:44;101262.38;;;31.18;57.01
23223;BME280;11780;13.904;100.620;2023-12-20T05:00:15;101256.84;;;31.18;56.70
23223;BME280;11780;13.904;100.620;2023-12-20T05:02:45;101250.19;;;31.19;56.98
23223;BME280;11780;13.904;100.620;2023-12-20T05:05:16;101249.22;;;31.23;56.71
23223;BME280;11780;13.904;100.620;2023-12-20T05:07:48;101241.78;;;31.24;56.80
23223;BME280;11780;13.904;100.620;2023-12-20T05:10:18;101237.03;;;31.24;57.02
23223;BME280;11780;13.904;100.620;2023-12-20T05:12:49;101223.88;;;31.21;57.13
23223;BME280;11780;13.904;100.620;2023-12-20T05:15:19;101218.34;;;31.21;56.93
23223;BME280;11780;13.904;100.620;2023-12-20T05:17:50;101206.97;;;31.23;56.82
23223;BME280;11780;13.904;100.620;2023-12-20T05:20:20;101207.78;;;31.23;56.66
23223;BME280;11780;13.904;100.620;2023-12-20T05:22:51;101201.13;;;31.24;56.21
23223;BME280;11780;13.904;100.620;2023-12-20T05:25:22;101198.34;;;31.24;56.62
23223;BME280;11780;13.904;100.620;2023-12-20T05:27:53;101194.47;;;31.25;55.91
23223;BME280;11780;13.904;100.620;2023-12-20T05:30:23;101187.81;;;31.26;56.00
23223;BME280;11780;13.904;100.620;2023-12-20T05:32:54;101185.38;;;31.25;56.29
23223;BME280;11780;13.904;100.620;2023-12-20T05:35:25;101177.88;;;31.25;56.12
23223;BME280;11780;13.904;100.620;2023-12-20T05:37:55;101174.31;;;31.25;56.36
23223;BME280;11780;13.904;100.620;2023-12-20T05:40:26;101173.19;;;31.26;56.32
23223;BME280;11780;13.904;100.620;2023-12-20T05:42:56;101166.19;;;31.28;56.69
23223;BME280;11780;13.904;100.620;2023-12-20T05:45:27;101154.63;;;31.26;56.89
23223;BME280;11780;13.904;100.620;2023-12-20T05:47:57;101151.56;;;31.28;56.76
23223;BME280;11780;13.904;100.620;2023-12-20T05:50:28;101149.63;;;31.28;56.81
23223;BME280;11780;13.904;100.620;2023-12-20T05:52:59;101136.63;;;31.29;56.71
23223;BME280;11780;13.904;100.620;2023-12-20T05:55:29;101131.91;;;31.29;56.36
23223;BME280;11780;13.904;100.620;2023-12-20T05:58:00;101133.19;;;31.32;56.06
23223;BME280;11780;13.904;100.620;2023-12-20T06:00:30;101127.19;;;31.30;56.55
23223;BME280;11780;13.904;100.620;2023-12-20T06:03:01;101126.88;;;31.32;56.27
23223;BME280;11780;13.904;100.620;2023-12-20T06:05:31;101111.59;;;31.34;56.20
23223;BME280;11780;13.904;100.620;2023-12-20T06:08:03;101115.50;;;31.33;56.40
23223;BME280;11780;13.904;100.620;2023-12-20T06:10:33;101105.56;;;31.32;56.64
23223;BME280;11780;13.904;100.620;2023-12-20T06:13:04;101097.28;;;31.32;56.58
23223;BME280;11780;13.904;100.620;2023-12-20T06:15:36;101095.84;;;31.35;56.50
23223;BME280;11780;13.904;100.620;2023-12-20T06:18:07;101097.16;;;31.37;56.05
23223;BME280;11780;13.904;100.620;2023-12-20T06:20:37;101086.41;;;31.36;56.42
23223;BME280;11780;13.904;100.620;2023-12-20T06:23:08;101092.75;;;31.36;56.45
23223;BME280;11780;13.904;100.620;2023-12-20T06:25:39;101081.19;;;31.34;56.50
23223;BME280;11780;13.904;100.620;2023-12-20T06:28:09;101077.00;;;31.37;56.55
23223;BME280;11780;13.904;100.620;2023-12-20T06:30:40;101071.94;;;31.39;56.28
23223;BME280;11780;13.904;100.620;2023-12-20T06:33:11;101066.91;;;31.41;55.57
23223;BME280;11780;13.904;100.620;2023-12-20T06:35:43;101050.16;;;31.37;55.37
23223;BME280;11780;13.904;100.620;2023-12-20T06:38:14;101056.97;;;31.40;55.48
23223;BME280;11780;13.904;100.620;2023-12-20T06:40:44;101047.88;;;31.39;55.44
23223;BME280;11780;13.904;100.620;2023-12-20T06:43:15;101051.16;;;31.41;55.86
23223;BME280;11780;13.904;100.620;2023-12-20T06:46:06;101053.91;;;31.41;55.95
23223;BME280;11780;13.904;100.620;2023-12-20T06:48:37;101040.91;;;31.42;55.82
23223;BME280;11780;13.904;100.620;2023-12-20T06:51:12;101045.63;;;31.41;55.39
23223;BME280;11780;13.904;100.620;2023-12-20T06:53:43;101028.19;;;31.41;55.66
23223;BME280;11780;13.904;100.620;2023-12-20T06:56:13;101031.47;;;31.43;55.25
23223;BME280;11780;13.904;100.620;2023-12-20T06:58:46;101033.44;;;31.42;55.58
23223;BME280;11780;13.904;100.620;2023-12-20T07:01:17;101022.38;;;31.42;56.06
23223;BME280;11780;13.904;100.620;2023-12-20T07:03:48;101020.41;;;31.43;54.98
23223;BME280;11780;13.904;100.620;2023-12-20T07:06:18;101025.13;;;31.42;54.85
23223;BME280;11780;13.904;100.620;2023-12-20T07:08:52;101018.78;;;31.42;54.46
23223;BME280;11780;13.904;100.620;2023-12-20T07:11:22;101022.38;;;31.42;54.38
23223;BME280;11780;13.904;100.620;2023-12-20T07:13:54;101017.34;;;31.44;54.68
23223;BME280;11780;13.904;100.620;2023-12-20T07:16:24;101014.88;;;31.43;54.51
23223;BME280;11780;13.904;100.620;2023-12-20T07:18:55;101008.56;;;31.42;53.99
23223;BME280;11780;13.904;100.620;2023-12-20T07:21:28;101001.88;;;31.43;54.11
23223;BME280;11780;13.904;100.620;2023-12-20T07:23:58;100994.91;;;31.46;54.08
23223;BME280;11780;13.904;100.620;2023-12-20T07:26:29;100996.03;;;31.45;53.67
23223;BME280;11780;13.904;100.620;2023-12-20T07:29:00;100986.59;;;31.46;53.56
23223;BME280;11780;13.904;100.620;2023-12-20T07:31:30;100979.09;;;31.47;54.18
23223;BME280;11780;13.904;100.620;2023-12-20T07:34:01;100991.00;;;31.47;53.87
23223;BME280;11780;13.904;100.620;2023-12-20T07:36:32;100983.50;;;31.48;53.49
23223;BME280;11780;13.904;100.620;2023-12-20T07:39:02;100979.59;;;31.49;53.72
23223;BME280;11780;13.904;100.620;2023-12-20T07:41:33;100964.97;;;31.48;53.61
23223;BME280;11780;13.904;100.620;2023-12-20T07:44:04;100969.03;;;31.51;53.05
23223;BME280;11780;13.904;100.620;2023-12-20T07:46:36;100961.38;;;31.48;53.18
23223;BME280;11780;13.904;100.620;2023-12-20T07:49:07;100962.72;;;31.50;52.90
23223;BME280;11780;13.904;100.620;2023-12-20T07:51:38;100960.75;;;31.51;52.55
23223;BME280;11780;13.904;100.620;2023-12-20T07:54:09;100966.59;;;31.49;52.37
23223;BME280;11780;13.904;100.620;2023-12-20T07:56:39;100958.31;;;31.49;52.89
23223;BME280;11780;13.904;100.620;2023-12-20T07:59:10;100957.19;;;31.50;52.61
23223;BME280;11780;13.904;100.620;2023-12-20T08:01:52;100950.81;;;31.50;52.41
23223;BME280;11780;13.904;100.620;2023-12-20T08:04:22;100953.28;;;31.51;52.59
23223;BME280;11780;13.904;100.620;2023-12-20T08:06:53;100952.44;;;31.51;52.36
23223;BME280;11780;13.904;100.620;2023-12-20T08:09:24;100953.75;;;31.53;52.52
23223;BME280;11780;13.904;100.620;2023-12-20T08:11:55;100950.19;;;31.53;52.79
23223;BME280;11780;13.904;100.620;2023-12-20T08:14:25;100952.16;;;31.52;52.29
23223;BME280;11780;13.904;100.620;2023-12-20T08:16:56;100952.16;;;31.52;52.90
23223;BME280;11780;13.904;100.620;2023-12-20T08:19:27;100949.03;;;31.54;52.71
23223;BME280;11780;13.904;100.620;2023-12-20T08:21:57;100946.78;;;31.56;52.78
23223;BME280;11780;13.904;100.620;2023-12-20T08:24:29;100947.09;;;31.54;53.10
23223;BME280;11780;13.904;100.620;2023-12-20T08:27:00;100949.84;;;31.54;53.10
23223;BME280;11780;13.904;100.620;2023-12-20T08:29:30;100941.56;;;31.54;53.37
23223;BME280;11780;13.904;100.620;2023-12-20T08:32:02;100936.50;;;31.56;53.11
23223;BME280;11780;13.904;100.620;2023-12-20T08:34:32;100948.72;;;31.55;52.87
23223;BME280;11780;13.904;100.620;2023-12-20T08:37:03;100950.03;;;31.58;52.99
23223;BME280;11780;13.904;100.620;2023-12-20T08:39:34;100957.00;;;31.55;53.33
23223;BME280;11780;13.904;100.620;2023-12-20T08:42:04;100946.44;;;31.57;52.63
23223;BME280;11780;13.904;100.620;2023-12-20T08:44:35;100954.25;;;31.55;53.12
23223;BME280;11780;13.904;100.620;2023-12-20T08:47:06;100959.28;;;31.53;52.82
23223;BME280;11780;13.904;100.620;2023-12-20T08:49:37;100957.84;;;31.56;52.77
23223;BME280;11780;13.904;100.620;2023-12-20T08:52:09;100956.22;;;31.55;53.11
23223;BME280;11780;13.904;100.620;2023-12-20T08:54:39;100942.03;;;31.56;52.83
23223;BME280;11780;13.904;100.620;2023-12-20T08:57:12;100955.88;;;31.56;52.58
23223;BME280;11780;13.904;100.620;2023-12-20T08:59:42;100961.09;;;31.58;51.73
23223;BME280;11780;13.904;100.620;2023-12-20T09:02:14;100960.25;;;31.57;52.62
23223;BME280;11780;13.904;100.620;2023-12-20T09:04:45;100959.47;;;31.57;52.56
23223;BME280;11780;13.904;100.620;2023-12-20T09:07:25;100961.91;;;31.58;52.46
23223;BME280;11780;13.904;100.620;2023-12-20T09:09:56;100954.72;;;31.57;52.55
23223;BME280;11780;13.904;100.620;2023-12-20T09:12:27;100957.66;;;31.61;52.80
23223;BME280;11780;13.904;100.620;2023-12-20T09:14:58;100958.34;;;31.58;52.84
23223;BME280;11780;13.904;100.620;2023-12-20T09:17:28;100965.94;;;31.61;52.54
23223;BME280;11780;13.904;100.620;2023-12-20T09:20:02;100964.66;;;31.58;52.66
23223;BME280;11780;13.904;100.620;2023-12-20T09:22:36;100961.91;;;31.58;52.99
23223;BME280;11780;13.904;100.620;2023-12-20T09:25:09;100960.75;;;31.59;52.79
23223;BME280;11780;13.904;100.620;2023-12-20T09:27:41;100960.25;;;31.57;52.85
23223;BME280;11780;13.904;100.620;2023-12-20T09:30:12;100967.44;;;31.58;53.19
23223;BME280;11780;13.904;100.620;2023-12-20T09:32:54;100958.63;;;31.56;53.22
23223;BME280;11780;13.904;100.620;2023-12-20T09:35:25;100974.09;;;31.57;52.42
23223;BME280;11780;13.904;100.620;2023-12-20T09:37:56;100967.75;;;31.57;52.52
23223;BME280;11780;13.904;100.620;2023-12-20T09:40:28;100972.94;;;31.58;52.03
23223;BME280;11780;13.904;100.620;2023-12-20T09:43:04;100973.28;;;31.57;52.49
23223;BME280;11780;13.904;100.620;2023-12-20T09:45:35;100979.78;;;31.61;52.46
23223;BME280;11780;13.904;100.620;2023-12-20T09:48:06;100978.66;;;31.62;52.63
23223;BME280;11780;13.904;100.620;2023-12-20T09:50:38;100984.16;;;31.62;52.56
23223;BME280;11780;13.904;100.620;2023-12-20T09:53:10;100985.00;;;31.63;52.50
23223;BME280;11780;13.904;100.620;2023-12-20T09:55:42;100986.94;;;31.62;52.72
23223;BME280;11780;13.904;100.620;2023-12-20T09:58:13;100986.47;;;31.60;52.50
23223;BME280;11780;13.904;100.620;2023-12-20T10:00:43;100994.44;;;31.62;52.90
23223;BME280;11780;13.904;100.620;2023-12-20T10:03:15;100995.56;;;31.61;52.84
23223;BME280;11780;13.904;100.620;2023-12-20T10:05:45;100995.22;;;31.62;52.80
23223;BME280;11780;13.904;100.620;2023-12-20T10:08:21;101000.59;;;31.58;53.02
23223;BME280;11780;13.904;100.620;2023-12-20T10:10:52;101013.78;;;31.62;52.87
23223;BME280;11780;13.904;100.620;2023-12-20T10:13:23;101019.31;;;31.62;53.29
23223;BME280;11780;13.904;100.620;2023-12-20T10:15:55;101025.19;;;31.60;52.80
23223;BME280;11780;13.904;100.620;2023-12-20T10:18:25;101026.31;;;31.59;52.96
23223;BME280;11780;13.904;100.620;2023-12-20T10:21:06;101032.31;;;31.61;53.02
23223;BME280;11780;13.904;100.620;2023-12-20T10:23:41;101044.53;;;31.60;53.11
23223;BME280;11780;13.904;100.620;2023-12-20T10:26:27;101048.09;;;31.61;52.73
23223;BME280;11780;13.904;100.620;2023-12-20T10:29:02;101043.72;;;31.59;53.21
23223;BME280;11780;13.904;100.620;2023-12-20T10:31:34;101053.63;;;31.61;52.90
23223;BME280;11780;13.904;100.620;2023-12-20T10:34:06;101058.38;;;31.60;53.39
23223;BME280;11780;13.904;100.620;2023-12-20T10:36:37;101066.00;;;31.63;53.41
23223;BME280;11780;13.904;100.620;2023-12-20T10:39:08;101057.53;;;31.59;53.45
23223;BME280;11780;13.904;100.620;2023-12-20T10:41:42;101071.03;;;31.61;53.38
23223;BME280;11780;13.904;100.620;2023-12-20T10:44:14;101074.63;;;31.62;53.25
23223;BME280;11780;13.904;100.620;2023-12-20T10:46:46;101072.50;;;31.58;53.26
23223;BME280;11780;13.904;100.620;2023-12-20T10:49:21;101072.19;;;31.60;53.40
23223;BME280;11780;13.904;100.620;2023-12-20T10:51:54;101079.31;;;31.61;54.03
23223;BME280;11780;13.904;100.620;2023-12-20T10:54:27;101077.22;;;31.58;53.85
23223;BME280;11780;13.904;100.620;2023-12-20T10:56:58;101074.75;;;31.56;54.01
23223;BME280;11780;13.904;100.620;2023-12-20T10:59:36;101079.50;;;31.56;54.36
23223;BME280;11780;13.904;100.620;2023-12-20T11:02:07;101088.59;;;31.56;54.21
23223;BME280;11780;13.904;100.620;2023-12-20T11:04:50;101085.03;;;31.56;54.19
23223;BME280;11780;13.904;100.620;2023-12-20T11:07:33;101088.59;;;31.56;54.11
23223;BME280;11780;13.904;100.620;2023-12-20T11:10:17;101099.34;;;31.58;54.30
23223;BME280;11780;13.904;100.620;2023-12-20T11:12:54;101093.47;;;31.59;54.46
23223;BME280;11780;13.904;100.620;2023-12-20T11:15:28;101101.28;;;31.57;54.47
23223;BME280;11780;13.904;100.620;2023-12-20T11:17:58;101102.91;;;31.58;54.44
23223;BME280;11780;13.904;100.620;2023-12-20T11:20:39;101105.69;;;31.58;54.77
23223;BME280;11780;13.904;100.620;2023-12-20T11:23:10;101113.97;;;31.58;54.99
23223;BME280;11780;13.904;100.620;2023-12-20T11:28:23;101119.50;;;31.58;55.40
23223;BME280;11780;13.904;100.620;2023-12-20T11:30:56;101117.88;;;31.57;55.31
23223;BME280;11780;13.904;100.620;2023-12-20T11:33:36;101122.25;;;31.58;55.12
23223;BME280;11780;13.904;100.620;2023-12-20T11:36:19;101128.63;;;31.59;55.45
23223;BME280;11780;13.904;100.620;2023-12-20T11:38:56;101124.53;;;31.56;55.51
23223;BME280;11780;13.904;100.620;2023-12-20T11:41:27;101141.63;;;31.58;55.76
23223;BME280;11780;13.904;100.620;2023-12-20T11:43:58;101140.31;;;31.56;55.68
23223;BME280;11780;13.904;100.620;2023-12-20T11:46:31;101148.78;;;31.59;55.84
23223;BME280;11780;13.904;100.620;2023-12-20T11:49:03;101151.53;;;31.59;55.38
23223;BME280;11780;13.904;100.620;2023-12-20T11:51:35;101162.59;;;31.59;55.58
23223;BME280;11780;13.904;100.620;2023-12-20T11:54:05;101166.84;;;31.57;55.33
23223;BME280;11780;13.904;100.620;2023-12-20T11:56:36;101167.13;;;31.55;55.50
23223;BME280;11780;13.904;100.620;2023-12-20T11:59:08;101174.50;;;31.60;55.06
23223;BME280;11780;13.904;100.620;2023-12-20T12:01:52;101176.44;;;31.59;55.22
23223;BME280;11780;13.904;100.620;2023-12-20T12:04:27;101183.59;;;31.61;54.81
23223;BME280;11780;13.904;100.620;2023-12-20T12:06:58;101173.66;;;31.59;54.87
23223;BME280;11780;13.904;100.620;2023-12-20T12:09:29;101173.66;;;31.59;54.57
23223;BME280;11780;13.904;100.620;2023-12-20T12:12:00;101191.41;;;31.58;54.29
23223;BME280;11780;13.904;100.620;2023-12-20T12:14:30;101190.25;;;31.59;54.52
23223;BME280;11780;13.904;100.620;2023-12-20T12:17:01;101195.00;;;31.59;54.47
23223;BME280;11780;13.904;100.620;2023-12-20T12:19:31;101194.50;;;31.57;54.61
23223;BME280;11780;13.904;100.620;2023-12-20T12:22:13;101194.78;;;31.55;54.53
23223;BME280;11780;13.904;100.620;2023-12-20T12:24:46;101208.63;;;31.55;54.47
23223;BME280;11780;13.904;100.620;2023-12-20T12:27:17;101212.22;;;31.56;54.64
23223;BME280;11780;13.904;100.620;2023-12-20T12:30:04;101220.81;;;31.54;54.58
23223;BME280;11780;13.904;100.620;2023-12-20T12:32:37;101221.94;;;31.53;54.57
23223;BME280;11780;13.904;100.620;2023-12-20T12:35:08;101224.91;;;31.57;54.22
23223;BME280;11780;13.904;100.620;2023-12-20T12:37:40;101230.44;;;31.57;54.24
23223;BME280;11780;13.904;100.620;2023-12-20T12:40:13;101233.19;;;31.57;54.49
23223;BME280;11780;13.904;100.620;2023-12-20T12:42:45;101240.66;;;31.56;54.30
23223;BME280;11780;13.904;100.620;2023-12-20T12:45:16;101243.44;;;31.56;53.96
23223;BME280;11780;13.904;100.620;2023-12-20T12:47:46;101248.97;;;31.56;54.37
23223;BME280;11780;13.904;100.620;2023-12-20T12:50:17;101249.28;;;31.55;54.17
23223;BME280;11780;13.904;100.620;2023-12-20T12:52:48;101249.59;;;31.53;54.12
23223;BME280;11780;13.904;100.620;2023-12-20T12:55:18;101248.44;;;31.54;54.33
23223;BME280;11780;13.904;100.620;2023-12-20T12:57:49;101257.88;;;31.53;54.41
23223;BME280;11780;13.904;100.620;2023-12-20T13:00:20;101260.84;;;31.57;54.55
23223;BME280;11780;13.904;100.620;2023-12-20T13:02:51;101269.44;;;31.55;54.13
23223;BME280;11780;13.904;100.620;2023-12-20T13:05:22;101276.59;;;31.56;53.99
23223;BME280;11780;13.904;100.620;2023-12-20T13:07:53;101269.44;;;31.55;54.00
23223;BME280;11780;13.904;100.620;2023-12-20T13:10:23;101278.88;;;31.54;54.10
23223;BME280;11780;13.904;100.620;2023-12-20T13:12:54;101280.84;;;31.54;54.11
23223;BME280;11780;13.904;100.620;2023-12-20T13:16:27;101279.06;;;31.58;53.82
23223;BME280;11780;13.904;100.620;2023-12-20T13:18:57;101281.19;;;31.61;53.39
23223;BME280;11780;13.904;100.620;2023-12-20T13:21:30;101288.34;;;31.62;53.29
23223;BME280;11780;13.904;100.620;2023-12-20T13:24:01;101282.03;;;31.62;53.59
23223;BME280;11780;13.904;100.620;2023-12-20T13:26:32;101288.34;;;31.62;53.38